sensor_id;sensor_type;location;lat;lon;timestamp;P1;durP1;ratioP1;P2;durP2;ratioP2
34876;SDS011;21086;44.780;17.194;2023-03-30T00:01:10;19.58;;;12.85;;
34876;SDS011;21086;44.780;17.194;2023-03-30T00:03:40;26.13;;;18.90;;
34876;SDS011;21086;44.780;17.194;2023-03-30T00:06:10;22.00;;;16.23;;
34876;SDS011;21086;44.780;17.194;2023-03-30T00:08:39;22.10;;;15.05;;
34876;SDS011;21086;44.780;17.194;2023-03-30T00:11:07;20.35;;;14.15;;
34876;SDS011;21086;44.780;17.194;2023-03-30T00:13:42;17.83;;;12.82;;
34876;SDS011;21086;44.780;17.194;2023-03-30T00:16:11;16.67;;;12.38;;
34876;SDS011;21086;44.780;17.194;2023-03-30T00:18:39;17.83;;;12.52;;
34876;SDS011;21086;44.780;17.194;2023-03-30T00:21:06;16.08;;;10.65;;
34876;SDS011;21086;44.780;17.194;2023-03-30T00:23:37;17.08;;;12.68;;
34876;SDS011;21086;44.780;17.194;2023-03-30T00:26:05;19.77;;;14.40;;
34876;SDS011;21086;44.780;17.194;2023-03-30T00:28:33;33.67;;;15.25;;
34876;SDS011;21086;44.780;17.194;2023-03-30T00:30:59;18.75;;;13.10;;
34876;SDS011;21086;44.780;17.194;2023-03-30T00:33:28;18.60;;;13.80;;
34876;SDS011;21086;44.780;17.194;2023-03-30T00:36:10;20.92;;;15.38;;
34876;SDS011;21086;44.780;17.194;2023-03-30T00:38:37;19.67;;;14.48;;
34876;SDS011;21086;44.780;17.194;2023-03-30T00:41:05;21.60;;;12.38;;
34876;SDS011;21086;44.780;17.194;2023-03-30T00:43:33;20.02;;;15.23;;
34876;SDS011;21086;44.780;17.194;2023-03-30T00:46:00;27.25;;;18.73;;
34876;SDS011;21086;44.780;17.194;2023-03-30T00:48:28;11.85;;;8.80;;
34876;SDS011;21086;44.780;17.194;2023-03-30T00:51:00;23.20;;;16.67;;
34876;SDS011;21086;44.780;17.194;2023-03-30T00:53:38;23.63;;;16.23;;
34876;SDS011;21086;44.780;17.194;2023-03-30T00:56:06;17.67;;;11.85;;
34876;SDS011;21086;44.780;17.194;2023-03-30T00:58:36;5.95;;;3.03;;
34876;SDS011;21086;44.780;17.194;2023-03-30T01:01:05;19.58;;;13.05;;
34876;SDS011;21086;44.780;17.194;2023-03-30T01:03:36;9.10;;;6.57;;
34876;SDS011;21086;44.780;17.194;2023-03-30T01:06:11;19.85;;;13.32;;
34876;SDS011;21086;44.780;17.194;2023-03-30T01:08:39;19.52;;;13.98;;
34876;SDS011;21086;44.780;17.194;2023-03-30T01:11:07;22.25;;;15.20;;
34876;SDS011;21086;44.780;17.194;2023-03-30T01:13:35;26.08;;;17.05;;
34876;SDS011;21086;44.780;17.194;2023-03-30T01:16:10;18.40;;;11.63;;
34876;SDS011;21086;44.780;17.194;2023-03-30T01:18:50;13.75;;;9.80;;
34876;SDS011;21086;44.780;17.194;2023-03-30T01:21:44;12.45;;;8.80;;
34876;SDS011;21086;44.780;17.194;2023-03-30T01:24:51;12.40;;;8.93;;
34876;SDS011;21086;44.780;17.194;2023-03-30T01:30:53;18.48;;;12.98;;
34876;SDS011;21086;44.780;17.194;2023-03-30T01:36:38;21.25;;;14.27;;
34876;SDS011;21086;44.780;17.194;2023-03-30T01:50:41;11.38;;;8.30;;
34876;SDS011;21086;44.780;17.194;2023-03-30T01:53:17;15.73;;;9.25;;
34876;SDS011;21086;44.780;17.194;2023-03-30T02:00:59;14.65;;;9.77;;
34876;SDS011;21086;44.780;17.194;2023-03-30T02:03:28;11.75;;;8.50;;
34876;SDS011;21086;44.780;17.194;2023-03-30T02:06:05;14.52;;;10.23;;
34876;SDS011;21086;44.780;17.194;2023-03-30T02:08:37;13.45;;;9.05;;
34876;SDS011;21086;44.780;17.194;2023-03-30T02:11:06;13.13;;;9.25;;
34876;SDS011;21086;44.780;17.194;2023-03-30T02:13:34;15.10;;;8.75;;
34876;SDS011;21086;44.780;17.194;2023-03-30T02:16:08;13.43;;;9.73;;
34876;SDS011;21086;44.780;17.194;2023-03-30T02:18:40;13.27;;;8.13;;
34876;SDS011;21086;44.780;17.194;2023-03-30T02:21:07;10.68;;;7.30;;
34876;SDS011;21086;44.780;17.194;2023-03-30T02:23:36;8.20;;;6.25;;
34876;SDS011;21086;44.780;17.194;2023-03-30T02:26:06;10.73;;;7.22;;
34876;SDS011;21086;44.780;17.194;2023-03-30T02:28:34;8.27;;;6.38;;
34876;SDS011;21086;44.780;17.194;2023-03-30T02:31:02;10.60;;;7.57;;
34876;SDS011;21086;44.780;17.194;2023-03-30T02:36:17;12.32;;;9.27;;
34876;SDS011;21086;44.780;17.194;2023-03-30T02:41:59;6.25;;;3.72;;
34876;SDS011;21086;44.780;17.194;2023-03-30T02:44:42;6.97;;;5.50;;
34876;SDS011;21086;44.780;17.194;2023-03-30T02:47:36;13.35;;;9.13;;
34876;SDS011;21086;44.780;17.194;2023-03-30T02:50:41;12.43;;;8.30;;
34876;SDS011;21086;44.780;17.194;2023-03-30T02:53:44;12.02;;;8.15;;
34876;SDS011;21086;44.780;17.194;2023-03-30T02:56:22;19.98;;;10.45;;
34876;SDS011;21086;44.780;17.194;2023-03-30T02:59:03;9.23;;;6.35;;
34876;SDS011;21086;44.780;17.194;2023-03-30T03:01:40;9.55;;;6.47;;
34876;SDS011;21086;44.780;17.194;2023-03-30T03:04:15;12.30;;;6.80;;
34876;SDS011;21086;44.780;17.194;2023-03-30T03:06:44;10.15;;;7.05;;
34876;SDS011;21086;44.780;17.194;2023-03-30T03:09:11;12.20;;;8.00;;
34876;SDS011;21086;44.780;17.194;2023-03-30T03:11:40;15.70;;;8.38;;
34876;SDS011;21086;44.780;17.194;2023-03-30T03:14:07;12.77;;;8.88;;
34876;SDS011;21086;44.780;17.194;2023-03-30T03:16:34;14.13;;;9.20;;
34876;SDS011;21086;44.780;17.194;2023-03-30T03:19:01;15.65;;;10.77;;
34876;SDS011;21086;44.780;17.194;2023-03-30T03:21:29;17.45;;;11.52;;
34876;SDS011;21086;44.780;17.194;2023-03-30T03:23:55;14.70;;;9.88;;
34876;SDS011;21086;44.780;17.194;2023-03-30T03:26:22;13.13;;;9.02;;
34876;SDS011;21086;44.780;17.194;2023-03-30T03:28:49;14.93;;;10.48;;
34876;SDS011;21086;44.780;17.194;2023-03-30T03:31:16;12.60;;;8.88;;
34876;SDS011;21086;44.780;17.194;2023-03-30T03:33:43;19.70;;;11.68;;
34876;SDS011;21086;44.780;17.194;2023-03-30T03:36:10;14.18;;;10.52;;
34876;SDS011;21086;44.780;17.194;2023-03-30T03:38:38;19.70;;;12.40;;
34876;SDS011;21086;44.780;17.194;2023-03-30T03:41:10;16.73;;;9.70;;
34876;SDS011;21086;44.780;17.194;2023-03-30T03:43:37;20.92;;;12.05;;
34876;SDS011;21086;44.780;17.194;2023-03-30T03:46:04;13.23;;;8.60;;
34876;SDS011;21086;44.780;17.194;2023-03-30T03:48:31;15.27;;;10.13;;
34876;SDS011;21086;44.780;17.194;2023-03-30T03:50:58;19.60;;;10.80;;
34876;SDS011;21086;44.780;17.194;2023-03-30T03:53:25;16.88;;;11.80;;
34876;SDS011;21086;44.780;17.194;2023-03-30T03:55:53;14.15;;;10.73;;
34876;SDS011;21086;44.780;17.194;2023-03-30T03:58:21;20.95;;;14.55;;
34876;SDS011;21086;44.780;17.194;2023-03-30T04:00:48;18.83;;;13.35;;
34876;SDS011;21086;44.780;17.194;2023-03-30T04:03:15;14.35;;;10.13;;
34876;SDS011;21086;44.780;17.194;2023-03-30T04:05:42;17.27;;;10.98;;
34876;SDS011;21086;44.780;17.194;2023-03-30T04:08:09;21.73;;;11.75;;
34876;SDS011;21086;44.780;17.194;2023-03-30T04:10:37;4.85;;;3.50;;
34876;SDS011;21086;44.780;17.194;2023-03-30T04:13:05;16.25;;;9.98;;
34876;SDS011;21086;44.780;17.194;2023-03-30T04:15:32;16.13;;;9.27;;
34876;SDS011;21086;44.780;17.194;2023-03-30T04:17:59;16.92;;;10.88;;
34876;SDS011;21086;44.780;17.194;2023-03-30T04:20:27;14.52;;;9.23;;
34876;SDS011;21086;44.780;17.194;2023-03-30T04:22:55;7.60;;;5.22;;
34876;SDS011;21086;44.780;17.194;2023-03-30T04:25:23;8.38;;;5.80;;
34876;SDS011;21086;44.780;17.194;2023-03-30T04:27:54;7.95;;;3.97;;
34876;SDS011;21086;44.780;17.194;2023-03-30T04:30:22;8.50;;;4.50;;
34876;SDS011;21086;44.780;17.194;2023-03-30T04:32:49;7.00;;;5.00;;
34876;SDS011;21086;44.780;17.194;2023-03-30T04:35:30;10.98;;;6.65;;
34876;SDS011;21086;44.780;17.194;2023-03-30T04:37:58;11.27;;;8.15;;
34876;SDS011;21086;44.780;17.194;2023-03-30T04:40:25;23.33;;;13.30;;
34876;SDS011;21086;44.780;17.194;2023-03-30T04:42:53;19.20;;;12.70;;
34876;SDS011;21086;44.780;17.194;2023-03-30T04:45:20;14.00;;;9.38;;
34876;SDS011;21086;44.780;17.194;2023-03-30T04:47:47;10.80;;;8.18;;
34876;SDS011;21086;44.780;17.194;2023-03-30T04:50:14;14.50;;;10.57;;
34876;SDS011;21086;44.780;17.194;2023-03-30T04:52:41;19.17;;;10.15;;
34876;SDS011;21086;44.780;17.194;2023-03-30T04:55:08;17.17;;;12.35;;
34876;SDS011;21086;44.780;17.194;2023-03-30T04:57:36;17.52;;;12.02;;
34876;SDS011;21086;44.780;17.194;2023-03-30T05:00:04;14.05;;;10.05;;
34876;SDS011;21086;44.780;17.194;2023-03-30T05:02:35;11.95;;;8.15;;
34876;SDS011;21086;44.780;17.194;2023-03-30T05:05:03;20.27;;;12.15;;
34876;SDS011;21086;44.780;17.194;2023-03-30T05:07:30;13.50;;;9.32;;
34876;SDS011;21086;44.780;17.194;2023-03-30T05:09:57;10.02;;;6.97;;
34876;SDS011;21086;44.780;17.194;2023-03-30T05:12:24;7.50;;;5.97;;
34876;SDS011;21086;44.780;17.194;2023-03-30T05:14:51;12.45;;;6.75;;
34876;SDS011;21086;44.780;17.194;2023-03-30T05:17:17;13.98;;;8.60;;
34876;SDS011;21086;44.780;17.194;2023-03-30T05:19:44;15.70;;;9.75;;
34876;SDS011;21086;44.780;17.194;2023-03-30T05:22:11;11.48;;;8.60;;
34876;SDS011;21086;44.780;17.194;2023-03-30T05:24:39;12.63;;;7.30;;
34876;SDS011;21086;44.780;17.194;2023-03-30T05:27:06;10.10;;;6.43;;
34876;SDS011;21086;44.780;17.194;2023-03-30T05:29:33;11.10;;;7.50;;
34876;SDS011;21086;44.780;17.194;2023-03-30T05:32:00;15.93;;;7.68;;
34876;SDS011;21086;44.780;17.194;2023-03-30T05:34:27;18.17;;;9.75;;
34876;SDS011;21086;44.780;17.194;2023-03-30T05:36:54;14.70;;;9.52;;
34876;SDS011;21086;44.780;17.194;2023-03-30T05:39:22;14.57;;;9.65;;
34876;SDS011;21086;44.780;17.194;2023-03-30T05:41:49;19.92;;;13.13;;
34876;SDS011;21086;44.780;17.194;2023-03-30T05:44:16;23.63;;;14.50;;
34876;SDS011;21086;44.780;17.194;2023-03-30T05:46:46;21.92;;;13.90;;
34876;SDS011;21086;44.780;17.194;2023-03-30T05:49:13;25.33;;;15.27;;
34876;SDS011;21086;44.780;17.194;2023-03-30T05:51:40;19.67;;;13.55;;
34876;SDS011;21086;44.780;17.194;2023-03-30T05:54:09;23.70;;;14.60;;
34876;SDS011;21086;44.780;17.194;2023-03-30T05:56:39;23.77;;;14.63;;
34876;SDS011;21086;44.780;17.194;2023-03-30T05:59:08;31.23;;;17.17;;
34876;SDS011;21086;44.780;17.194;2023-03-30T06:01:36;27.25;;;15.98;;
34876;SDS011;21086;44.780;17.194;2023-03-30T06:04:03;18.52;;;11.77;;
34876;SDS011;21086;44.780;17.194;2023-03-30T06:06:31;34.60;;;17.73;;
34876;SDS011;21086;44.780;17.194;2023-03-30T06:08:59;22.13;;;15.65;;
34876;SDS011;21086;44.780;17.194;2023-03-30T06:11:26;23.23;;;14.93;;
34876;SDS011;21086;44.780;17.194;2023-03-30T06:13:53;25.33;;;18.88;;
34876;SDS011;21086;44.780;17.194;2023-03-30T06:16:20;30.27;;;18.75;;
34876;SDS011;21086;44.780;17.194;2023-03-30T06:18:47;44.03;;;27.75;;
34876;SDS011;21086;44.780;17.194;2023-03-30T06:21:14;38.80;;;24.40;;
34876;SDS011;21086;44.780;17.194;2023-03-30T06:23:42;21.98;;;12.90;;
34876;SDS011;21086;44.780;17.194;2023-03-30T06:26:10;15.80;;;8.20;;
34876;SDS011;21086;44.780;17.194;2023-03-30T06:28:37;23.75;;;10.18;;
34876;SDS011;21086;44.780;17.194;2023-03-30T06:31:09;18.40;;;11.30;;
34876;SDS011;21086;44.780;17.194;2023-03-30T06:33:37;37.55;;;20.13;;
34876;SDS011;21086;44.780;17.194;2023-03-30T06:36:11;29.80;;;20.58;;
34876;SDS011;21086;44.780;17.194;2023-03-30T06:38:39;14.30;;;9.20;;
34876;SDS011;21086;44.780;17.194;2023-03-30T06:41:08;11.10;;;6.00;;
34876;SDS011;21086;44.780;17.194;2023-03-30T06:43:37;4.15;;;2.08;;
34876;SDS011;21086;44.780;17.194;2023-03-30T06:46:05;8.40;;;5.40;;
34876;SDS011;21086;44.780;17.194;2023-03-30T06:48:32;20.48;;;11.13;;
34876;SDS011;21086;44.780;17.194;2023-03-30T06:51:00;12.68;;;5.82;;
34876;SDS011;21086;44.780;17.194;2023-03-30T06:53:28;5.85;;;2.85;;
34876;SDS011;21086;44.780;17.194;2023-03-30T06:55:57;5.45;;;3.60;;
34876;SDS011;21086;44.780;17.194;2023-03-30T06:58:25;4.75;;;3.00;;
34876;SDS011;21086;44.780;17.194;2023-03-30T07:00:54;6.60;;;3.55;;
34876;SDS011;21086;44.780;17.194;2023-03-30T07:03:25;6.93;;;4.10;;
34876;SDS011;21086;44.780;17.194;2023-03-30T07:05:52;3.25;;;2.20;;
34876;SDS011;21086;44.780;17.194;2023-03-30T07:08:20;2.63;;;1.30;;
34876;SDS011;21086;44.780;17.194;2023-03-30T07:10:48;6.18;;;2.30;;
34876;SDS011;21086;44.780;17.194;2023-03-30T07:13:16;3.88;;;2.03;;
34876;SDS011;21086;44.780;17.194;2023-03-30T07:15:45;3.58;;;1.20;;
34876;SDS011;21086;44.780;17.194;2023-03-30T07:18:12;2.75;;;1.40;;
34876;SDS011;21086;44.780;17.194;2023-03-30T07:20:39;3.80;;;1.00;;
34876;SDS011;21086;44.780;17.194;2023-03-30T07:23:07;1.85;;;0.80;;
34876;SDS011;21086;44.780;17.194;2023-03-30T07:25:34;1.35;;;0.70;;
34876;SDS011;21086;44.780;17.194;2023-03-30T07:28:01;1.45;;;0.98;;
34876;SDS011;21086;44.780;17.194;2023-03-30T07:30:31;2.20;;;1.10;;
34876;SDS011;21086;44.780;17.194;2023-03-30T07:32:59;4.43;;;0.82;;
34876;SDS011;21086;44.780;17.194;2023-03-30T07:35:27;1.83;;;0.82;;
34876;SDS011;21086;44.780;17.194;2023-03-30T07:37:54;1.23;;;0.60;;
34876;SDS011;21086;44.780;17.194;2023-03-30T07:40:29;1.50;;;0.70;;
34876;SDS011;21086;44.780;17.194;2023-03-30T07:42:57;1.85;;;0.77;;
34876;SDS011;21086;44.780;17.194;2023-03-30T07:45:26;3.65;;;0.93;;
34876;SDS011;21086;44.780;17.194;2023-03-30T07:47:53;2.40;;;0.90;;
34876;SDS011;21086;44.780;17.194;2023-03-30T07:50:20;1.95;;;0.88;;
34876;SDS011;21086;44.780;17.194;2023-03-30T07:52:49;5.97;;;0.90;;
34876;SDS011;21086;44.780;17.194;2023-03-30T07:55:16;2.85;;;1.13;;
34876;SDS011;21086;44.780;17.194;2023-03-30T07:57:43;1.17;;;0.70;;
34876;SDS011;21086;44.780;17.194;2023-03-30T08:00:11;2.30;;;0.82;;
34876;SDS011;21086;44.780;17.194;2023-03-30T08:02:40;1.95;;;0.80;;
34876;SDS011;21086;44.780;17.194;2023-03-30T08:05:10;3.05;;;0.70;;
34876;SDS011;21086;44.780;17.194;2023-03-30T08:07:38;0.98;;;0.43;;
34876;SDS011;21086;44.780;17.194;2023-03-30T08:10:05;1.20;;;0.50;;
34876;SDS011;21086;44.780;17.194;2023-03-30T08:12:36;1.55;;;0.75;;
34876;SDS011;21086;44.780;17.194;2023-03-30T08:15:03;1.45;;;0.73;;
34876;SDS011;21086;44.780;17.194;2023-03-30T08:17:31;2.17;;;0.75;;
34876;SDS011;21086;44.780;17.194;2023-03-30T08:19:58;2.10;;;0.65;;
34876;SDS011;21086;44.780;17.194;2023-03-30T08:22:29;3.85;;;0.57;;
34876;SDS011;21086;44.780;17.194;2023-03-30T08:24:56;2.00;;;0.90;;
34876;SDS011;21086;44.780;17.194;2023-03-30T08:27:22;1.25;;;0.70;;
34876;SDS011;21086;44.780;17.194;2023-03-30T08:29:49;4.13;;;1.10;;
34876;SDS011;21086;44.780;17.194;2023-03-30T08:32:19;1.77;;;0.90;;
34876;SDS011;21086;44.780;17.194;2023-03-30T08:34:46;2.28;;;0.70;;
34876;SDS011;21086;44.780;17.194;2023-03-30T08:37:13;4.55;;;1.88;;
34876;SDS011;21086;44.780;17.194;2023-03-30T08:39:40;2.70;;;1.55;;
34876;SDS011;21086;44.780;17.194;2023-03-30T08:45:09;3.78;;;1.30;;
34876;SDS011;21086;44.780;17.194;2023-03-30T08:47:38;2.63;;;1.35;;
34876;SDS011;21086;44.780;17.194;2023-03-30T08:50:11;2.17;;;1.10;;
34876;SDS011;21086;44.780;17.194;2023-03-30T08:52:42;3.28;;;0.75;;
34876;SDS011;21086;44.780;17.194;2023-03-30T08:55:16;1.25;;;0.70;;
34876;SDS011;21086;44.780;17.194;2023-03-30T09:03:58;1.85;;;0.57;;
34876;SDS011;21086;44.780;17.194;2023-03-30T09:09:40;0.75;;;0.52;;
34876;SDS011;21086;44.780;17.194;2023-03-30T09:15:14;1.05;;;0.57;;
34876;SDS011;21086;44.780;17.194;2023-03-30T09:18:33;2.63;;;0.80;;
34876;SDS011;21086;44.780;17.194;2023-03-30T09:20:56;3.25;;;1.02;;
34876;SDS011;21086;44.780;17.194;2023-03-30T09:23:25;2.92;;;1.10;;
34876;SDS011;21086;44.780;17.194;2023-03-30T09:26:09;5.03;;;1.20;;
34876;SDS011;21086;44.780;17.194;2023-03-30T09:28:53;1.45;;;0.60;;
34876;SDS011;21086;44.780;17.194;2023-03-30T09:31:50;1.20;;;0.52;;
34876;SDS011;21086;44.780;17.194;2023-03-30T09:34:34;3.38;;;0.65;;
34876;SDS011;21086;44.780;17.194;2023-03-30T09:37:12;2.15;;;0.70;;
34876;SDS011;21086;44.780;17.194;2023-03-30T09:39:46;2.85;;;0.60;;
34876;SDS011;21086;44.780;17.194;2023-03-30T09:45:20;1.27;;;0.75;;
34876;SDS011;21086;44.780;17.194;2023-03-30T09:47:53;1.77;;;0.65;;
34876;SDS011;21086;44.780;17.194;2023-03-30T09:50:24;2.67;;;0.82;;
34876;SDS011;21086;44.780;17.194;2023-03-30T09:53:01;0.70;;;0.55;;
34876;SDS011;21086;44.780;17.194;2023-03-30T09:55:31;3.25;;;0.70;;
34876;SDS011;21086;44.780;17.194;2023-03-30T09:58:12;3.00;;;0.90;;
34876;SDS011;21086;44.780;17.194;2023-03-30T10:00:45;1.40;;;0.70;;
34876;SDS011;21086;44.780;17.194;2023-03-30T10:03:26;2.25;;;0.70;;
34876;SDS011;21086;44.780;17.194;2023-03-30T10:08:28;1.85;;;0.70;;
34876;SDS011;21086;44.780;17.194;2023-03-30T10:13:34;2.83;;;0.70;;
34876;SDS011;21086;44.780;17.194;2023-03-30T10:16:07;1.25;;;0.60;;
34876;SDS011;21086;44.780;17.194;2023-03-30T10:18:43;3.20;;;1.00;;
34876;SDS011;21086;44.780;17.194;2023-03-30T10:21:16;2.25;;;1.02;;
34876;SDS011;21086;44.780;17.194;2023-03-30T10:23:45;2.30;;;0.80;;
34876;SDS011;21086;44.780;17.194;2023-03-30T10:26:25;3.20;;;0.95;;
34876;SDS011;21086;44.780;17.194;2023-03-30T10:28:57;2.75;;;0.73;;
34876;SDS011;21086;44.780;17.194;2023-03-30T10:31:30;0.77;;;0.60;;
34876;SDS011;21086;44.780;17.194;2023-03-30T10:34:01;1.33;;;0.73;;
34876;SDS011;21086;44.780;17.194;2023-03-30T10:36:34;1.45;;;0.60;;
34876;SDS011;21086;44.780;17.194;2023-03-30T10:39:23;2.00;;;0.70;;
34876;SDS011;21086;44.780;17.194;2023-03-30T10:42:02;1.45;;;0.63;;
34876;SDS011;21086;44.780;17.194;2023-03-30T10:44:35;5.43;;;0.90;;
34876;SDS011;21086;44.780;17.194;2023-03-30T11:07:11;2.42;;;0.57;;
34876;SDS011;21086;44.780;17.194;2023-03-30T11:10:02;1.25;;;0.50;;
34876;SDS011;21086;44.780;17.194;2023-03-30T11:12:55;1.73;;;0.70;;
34876;SDS011;21086;44.780;17.194;2023-03-30T11:21:20;1.63;;;0.50;;
34876;SDS011;21086;44.780;17.194;2023-03-30T11:26:42;2.55;;;0.70;;
34876;SDS011;21086;44.780;17.194;2023-03-30T11:31:48;2.38;;;0.55;;
34876;SDS011;21086;44.780;17.194;2023-03-30T11:36:59;1.83;;;0.43;;
34876;SDS011;21086;44.780;17.194;2023-03-30T11:39:48;4.38;;;1.00;;
34876;SDS011;21086;44.780;17.194;2023-03-30T11:42:27;1.88;;;0.60;;
34876;SDS011;21086;44.780;17.194;2023-03-30T11:44:56;2.47;;;0.77;;
34876;SDS011;21086;44.780;17.194;2023-03-30T11:58:19;1.80;;;0.60;;
34876;SDS011;21086;44.780;17.194;2023-03-30T12:00:59;1.45;;;0.57;;
34876;SDS011;21086;44.780;17.194;2023-03-30T12:06:19;1.75;;;0.70;;
34876;SDS011;21086;44.780;17.194;2023-03-30T12:12:10;2.25;;;0.88;;
34876;SDS011;21086;44.780;17.194;2023-03-30T12:14:54;3.28;;;0.90;;
34876;SDS011;21086;44.780;17.194;2023-03-30T12:17:29;2.25;;;0.70;;
34876;SDS011;21086;44.780;17.194;2023-03-30T12:25:25;3.72;;;0.57;;
34876;SDS011;21086;44.780;17.194;2023-03-30T12:27:58;3.03;;;0.70;;
34876;SDS011;21086;44.780;17.194;2023-03-30T12:30:30;1.33;;;0.50;;
34876;SDS011;21086;44.780;17.194;2023-03-30T12:33:36;1.80;;;0.80;;
34876;SDS011;21086;44.780;17.194;2023-03-30T12:36:31;2.83;;;0.70;;
34876;SDS011;21086;44.780;17.194;2023-03-30T12:39:04;3.70;;;0.82;;
34876;SDS011;21086;44.780;17.194;2023-03-30T12:41:37;3.08;;;0.60;;
34876;SDS011;21086;44.780;17.194;2023-03-30T12:58:05;3.10;;;0.57;;
34876;SDS011;21086;44.780;17.194;2023-03-30T13:00:41;3.15;;;0.90;;
34876;SDS011;21086;44.780;17.194;2023-03-30T13:05:48;3.17;;;0.55;;
34876;SDS011;21086;44.780;17.194;2023-03-30T13:08:51;2.40;;;0.80;;
34876;SDS011;21086;44.780;17.194;2023-03-30T13:11:15;2.50;;;0.82;;
34876;SDS011;21086;44.780;17.194;2023-03-30T13:19:24;2.58;;;0.77;;
34876;SDS011;21086;44.780;17.194;2023-03-30T13:21:54;2.63;;;0.80;;
34876;SDS011;21086;44.780;17.194;2023-03-30T13:30:03;5.05;;;0.57;;
34876;SDS011;21086;44.780;17.194;2023-03-30T13:38:11;2.78;;;0.75;;
34876;SDS011;21086;44.780;17.194;2023-03-30T13:46:20;2.78;;;0.68;;
34876;SDS011;21086;44.780;17.194;2023-03-30T13:51:38;1.63;;;0.88;;
34876;SDS011;21086;44.780;17.194;2023-03-30T13:54:15;1.95;;;0.80;;
34876;SDS011;21086;44.780;17.194;2023-03-30T13:57:07;2.88;;;0.63;;
34876;SDS011;21086;44.780;17.194;2023-03-30T13:59:37;2.95;;;1.15;;
34876;SDS011;21086;44.780;17.194;2023-03-30T14:02:11;5.78;;;2.92;;
34876;SDS011;21086;44.780;17.194;2023-03-30T14:04:42;4.38;;;2.45;;
34876;SDS011;21086;44.780;17.194;2023-03-30T14:07:16;4.50;;;1.75;;
34876;SDS011;21086;44.780;17.194;2023-03-30T14:10:05;3.03;;;0.75;;
34876;SDS011;21086;44.780;17.194;2023-03-30T14:12:37;2.85;;;0.85;;
34876;SDS011;21086;44.780;17.194;2023-03-30T14:17:49;2.40;;;0.82;;
34876;SDS011;21086;44.780;17.194;2023-03-30T14:22:52;5.85;;;3.45;;
34876;SDS011;21086;44.780;17.194;2023-03-30T14:25:27;2.78;;;1.40;;
34876;SDS011;21086;44.780;17.194;2023-03-30T14:28:02;4.75;;;1.38;;
34876;SDS011;21086;44.780;17.194;2023-03-30T14:30:36;3.33;;;2.20;;
34876;SDS011;21086;44.780;17.194;2023-03-30T14:33:10;5.25;;;1.88;;
34876;SDS011;21086;44.780;17.194;2023-03-30T14:35:41;3.55;;;1.70;;
34876;SDS011;21086;44.780;17.194;2023-03-30T14:38:13;6.50;;;2.30;;
34876;SDS011;21086;44.780;17.194;2023-03-30T14:40:46;6.78;;;3.65;;
34876;SDS011;21086;44.780;17.194;2023-03-30T14:43:18;8.55;;;2.90;;
34876;SDS011;21086;44.780;17.194;2023-03-30T14:45:47;5.20;;;2.65;;
34876;SDS011;21086;44.780;17.194;2023-03-30T14:48:24;5.65;;;2.75;;
34876;SDS011;21086;44.780;17.194;2023-03-30T14:50:56;4.45;;;2.42;;
34876;SDS011;21086;44.780;17.194;2023-03-30T14:53:25;8.50;;;3.20;;
34876;SDS011;21086;44.780;17.194;2023-03-30T14:55:54;5.32;;;2.28;;
34876;SDS011;21086;44.780;17.194;2023-03-30T14:58:24;3.40;;;2.67;;
34876;SDS011;21086;44.780;17.194;2023-03-30T15:00:53;8.20;;;4.90;;
34876;SDS011;21086;44.780;17.194;2023-03-30T15:03:25;7.53;;;3.33;;
34876;SDS011;21086;44.780;17.194;2023-03-30T15:06:00;6.05;;;1.67;;
34876;SDS011;21086;44.780;17.194;2023-03-30T15:08:31;2.38;;;1.40;;
34876;SDS011;21086;44.780;17.194;2023-03-30T15:11:10;3.67;;;1.90;;
34876;SDS011;21086;44.780;17.194;2023-03-30T15:13:43;4.55;;;1.65;;
34876;SDS011;21086;44.780;17.194;2023-03-30T15:16:21;5.38;;;1.95;;
34876;SDS011;21086;44.780;17.194;2023-03-30T15:18:53;2.78;;;1.40;;
34876;SDS011;21086;44.780;17.194;2023-03-30T15:21:36;5.45;;;2.38;;
34876;SDS011;21086;44.780;17.194;2023-03-30T15:24:05;4.50;;;1.52;;
34876;SDS011;21086;44.780;17.194;2023-03-30T15:26:35;5.05;;;1.67;;
34876;SDS011;21086;44.780;17.194;2023-03-30T15:29:09;2.75;;;1.70;;
34876;SDS011;21086;44.780;17.194;2023-03-30T15:31:38;3.35;;;1.83;;
34876;SDS011;21086;44.780;17.194;2023-03-30T15:34:05;4.07;;;2.00;;
34876;SDS011;21086;44.780;17.194;2023-03-30T15:36:40;6.55;;;2.50;;
34876;SDS011;21086;44.780;17.194;2023-03-30T15:39:18;6.20;;;2.20;;
34876;SDS011;21086;44.780;17.194;2023-03-30T15:44:21;3.20;;;1.50;;
34876;SDS011;21086;44.780;17.194;2023-03-30T15:46:48;5.72;;;2.25;;
34876;SDS011;21086;44.780;17.194;2023-03-30T15:49:17;4.80;;;2.72;;
34876;SDS011;21086;44.780;17.194;2023-03-30T15:51:51;3.38;;;1.75;;
34876;SDS011;21086;44.780;17.194;2023-03-30T15:54:33;3.10;;;1.55;;
34876;SDS011;21086;44.780;17.194;2023-03-30T15:59:43;1.55;;;0.90;;
34876;SDS011;21086;44.780;17.194;2023-03-30T16:05:01;2.83;;;1.10;;
34876;SDS011;21086;44.780;17.194;2023-03-30T16:07:30;1.95;;;1.15;;
34876;SDS011;21086;44.780;17.194;2023-03-30T16:09:57;4.28;;;1.52;;
34876;SDS011;21086;44.780;17.194;2023-03-30T16:12:25;1.67;;;1.17;;
34876;SDS011;21086;44.780;17.194;2023-03-30T16:14:55;4.45;;;1.40;;
34876;SDS011;21086;44.780;17.194;2023-03-30T16:17:23;5.00;;;1.13;;
34876;SDS011;21086;44.780;17.194;2023-03-30T16:19:51;2.92;;;1.15;;
34876;SDS011;21086;44.780;17.194;2023-03-30T16:22:18;4.70;;;1.17;;
34876;SDS011;21086;44.780;17.194;2023-03-30T16:24:45;2.80;;;1.20;;
34876;SDS011;21086;44.780;17.194;2023-03-30T16:27:13;2.25;;;1.15;;
34876;SDS011;21086;44.780;17.194;2023-03-30T16:29:40;3.78;;;1.38;;
34876;SDS011;21086;44.780;17.194;2023-03-30T16:32:07;3.33;;;1.60;;
34876;SDS011;21086;44.780;17.194;2023-03-30T16:34:34;3.75;;;1.60;;
34876;SDS011;21086;44.780;17.194;2023-03-30T16:37:02;4.30;;;1.23;;
34876;SDS011;21086;44.780;17.194;2023-03-30T16:39:29;2.47;;;0.88;;
34876;SDS011;21086;44.780;17.194;2023-03-30T16:41:56;2.58;;;1.38;;
34876;SDS011;21086;44.780;17.194;2023-03-30T16:44:23;2.42;;;1.08;;
34876;SDS011;21086;44.780;17.194;2023-03-30T16:46:50;2.50;;;0.90;;
34876;SDS011;21086;44.780;17.194;2023-03-30T16:49:19;2.08;;;1.52;;
34876;SDS011;21086;44.780;17.194;2023-03-30T16:51:48;2.45;;;1.15;;
34876;SDS011;21086;44.780;17.194;2023-03-30T16:54:16;2.97;;;1.30;;
34876;SDS011;21086;44.780;17.194;2023-03-30T16:56:57;5.15;;;1.60;;
34876;SDS011;21086;44.780;17.194;2023-03-30T16:59:25;4.63;;;1.42;;
34876;SDS011;21086;44.780;17.194;2023-03-30T17:01:54;5.07;;;2.97;;
34876;SDS011;21086;44.780;17.194;2023-03-30T17:04:21;3.90;;;1.83;;
34876;SDS011;21086;44.780;17.194;2023-03-30T17:06:48;5.38;;;2.70;;
34876;SDS011;21086;44.780;17.194;2023-03-30T17:09:16;4.05;;;1.90;;
34876;SDS011;21086;44.780;17.194;2023-03-30T17:11:45;4.75;;;1.52;;
34876;SDS011;21086;44.780;17.194;2023-03-30T17:14:13;3.67;;;1.98;;
34876;SDS011;21086;44.780;17.194;2023-03-30T17:16:41;5.43;;;2.15;;
34876;SDS011;21086;44.780;17.194;2023-03-30T17:19:09;3.42;;;1.92;;
34876;SDS011;21086;44.780;17.194;2023-03-30T17:21:38;4.05;;;2.20;;
34876;SDS011;21086;44.780;17.194;2023-03-30T17:24:08;4.45;;;1.80;;
34876;SDS011;21086;44.780;17.194;2023-03-30T17:26:37;3.45;;;1.27;;
34876;SDS011;21086;44.780;17.194;2023-03-30T17:29:04;2.83;;;1.40;;
34876;SDS011;21086;44.780;17.194;2023-03-30T17:31:31;6.03;;;1.92;;
34876;SDS011;21086;44.780;17.194;2023-03-30T17:33:58;3.80;;;1.80;;